Main page
METAR-TAF:

METAR-TAF

Airports :

Halli Airport

Jämsä, Finland

latitude: 61-51N, longitude: 024-48E, elevation: 143 m

Current weather observation

The report was made 25 minutes ago, at 18:20 UTC
Wind 3 kt from the Southeast, varying between East/Southeast and South
Temperature 24°C
Humidity 50%
Pressure 1013 hPa
Visibility 10 km or more
no clouds below 1500 m and no cumulonimbus

METAR: EFHA 231820Z AUTO 14003KT 110V170 CAVOK 24/13 Q1013

Time: 21:45 (18:45 UTC)

Forecast

The report was made 7 hours and 18 minutes ago, at 11:27 UTC
Forecast valid from 23 at 12 UTC to 23 at 15 UTC
Wind 8 kt from the Southeast
Visibility 10 km or more
no clouds below 1500 m and no cumulonimbus
Probability 30%
from 23 at 12 UTC to 23 at 15 UTC
Few clouds at a height of 4000 ft, Towering cumulus.

TAF: EFHA 231127Z 2312/2315 14008KT CAVOK PROB30 2312/2315 FEW040TCU

Weather observations and forecasts of more than 4000 airports (METAR and TAF reports).

The available stations are represented by yellow and red dots on the map.

Hover mouse over dot to see the name of the station.

Then click to see weather observations and forecasts.

To change the map : click on the green buttons with a black cross to zoom in, on the green button with a dash to zoom out, or on the green arrows for adjacent maps.


METAR-TAF: